Time;durP1;ratioP1;P1;durP2;ratioP2;P2;SDS_P1;SDS_P2;PMS_P1;PMS_P2;Temp;Humidity;BMP_temperature;BMP_pressure;BME280_temperature;BME280_humidity;BME280_pressure;Samples;Min_cycle;Max_cycle;Signal;HPM_P1;HPM_P2
2022/04/29 00:02:18;;;;;;;11.67;7.93;;;11.40;68.00;;;;;;4997596;28;20496;-74
2022/04/29 00:04:46;;;;;;;10.97;8.37;;;11.40;68.10;;;;;;4995757;28;20468;-76
2022/04/29 00:07:15;;;;;;;10.73;8.27;;;11.40;68.10;;;;;;4996819;28;20485;-75
2022/04/29 00:09:43;;;;;;;13.50;8.00;;;11.40;68.20;;;;;;4994978;28;20460;-74
2022/04/29 00:12:12;;;;;;;10.57;8.40;;;11.30;68.00;;;;;;4995330;28;20465;-76
2022/04/29 00:14:40;;;;;;;11.80;8.17;;;11.20;67.90;;;;;;4992560;28;20849;-76
2022/04/29 00:17:09;;;;;;;10.63;8.33;;;11.10;68.00;;;;;;4995436;28;20480;-76
2022/04/29 00:19:38;;;;;;;10.07;7.80;;;11.10;68.10;;;;;;4999483;28;20469;-77
2022/04/29 00:22:08;;;;;;;10.03;8.03;;;11.00;68.30;;;;;;5000707;28;20491;-76
2022/04/29 00:24:36;;;;;;;10.20;8.40;;;11.00;68.40;;;;;;4994453;28;20468;-76
2022/04/29 00:27:04;;;;;;;11.57;8.40;;;10.90;68.40;;;;;;4994181;28;21228;-76
2022/04/29 00:29:32;;;;;;;12.30;8.20;;;10.90;68.50;;;;;;4994724;28;20457;-76
2022/04/29 00:32:00;;;;;;;9.53;7.20;;;10.90;68.40;;;;;;4995815;28;21478;-76
2022/04/29 00:34:28;;;;;;;10.67;9.10;;;10.80;68.60;;;;;;4992199;28;20465;-77
2022/04/29 00:36:57;;;;;;;13.00;8.83;;;10.80;68.60;;;;;;4999172;28;20486;-74
2022/04/29 00:39:26;;;;;;;10.83;7.60;;;10.80;68.70;;;;;;4995338;28;21029;-77
2022/04/29 00:41:54;;;;;;;9.60;7.80;;;10.80;68.70;;;;;;4993980;28;20456;-76
2022/04/29 00:44:22;;;;;;;12.53;8.20;;;10.80;68.70;;;;;;4997982;28;20476;-77
2022/04/29 00:46:51;;;;;;;10.30;7.40;;;10.80;68.80;;;;;;4992851;28;20487;-74
2022/04/29 00:49:20;;;;;;;10.27;7.63;;;10.80;68.80;;;;;;4993142;28;20480;-75
2022/04/29 00:51:51;;;;;;;11.00;8.17;;;10.80;68.80;;;;;;4993494;28;20461;-75
2022/04/29 00:54:27;;;;;;;11.17;7.23;;;10.70;68.90;;;;;;4992650;28;20469;-74
2022/04/29 00:56:56;;;;;;;11.20;7.90;;;10.70;68.80;;;;;;5004729;28;20564;-75
2022/04/29 00:59:29;;;;;;;13.20;7.60;;;10.70;68.80;;;;;;4997658;28;20452;-75
2022/04/29 01:01:59;;;;;;;13.30;7.67;;;10.70;68.90;;;;;;5001698;28;20542;-76
2022/04/29 01:04:32;;;;;;;10.80;7.20;;;10.70;68.90;;;;;;5001734;28;20538;-76
2022/04/29 01:07:00;;;;;;;10.50;6.80;;;10.70;68.90;;;;;;4993583;28;20857;-76
2022/04/29 01:09:29;;;;;;;8.43;6.60;;;10.70;68.90;;;;;;4993898;28;20454;-74
2022/04/29 01:11:58;;;;;;;9.27;7.73;;;10.70;69.00;;;;;;4999753;28;20969;-75
2022/04/29 01:14:25;;;;;;;9.87;7.20;;;10.70;69.00;;;;;;5012722;28;20960;-74
2022/04/29 01:16:56;;;;;;;10.17;7.80;;;10.80;68.90;;;;;;5000244;28;20535;-76
2022/04/29 01:19:24;;;;;;;10.27;7.50;;;10.70;68.70;;;;;;5000227;28;20461;-76
2022/04/29 01:21:53;;;;;;;9.90;6.47;;;10.70;68.70;;;;;;4996350;28;20466;-74
2022/04/29 01:24:22;;;;;;;9.47;7.30;;;10.60;68.70;;;;;;5001489;28;20612;-76
2022/04/29 01:26:50;;;;;;;10.40;7.30;;;10.60;68.80;;;;;;4999405;28;20481;-75
2022/04/29 01:29:20;;;;;;;14.90;8.10;;;10.60;68.70;;;;;;5007459;28;20811;-77
2022/04/29 01:31:50;;;;;;;18.23;7.70;;;10.60;68.60;;;;;;5000525;28;20848;-76
2022/04/29 01:34:18;;;;;;;9.30;7.30;;;10.50;68.60;;;;;;4998566;28;22043;-76
2022/04/29 01:36:46;;;;;;;13.00;7.70;;;10.40;68.60;;;;;;4990971;28;21065;-76
2022/04/29 01:39:14;;;;;;;10.10;7.73;;;10.40;68.70;;;;;;4998652;28;20964;-75
2022/04/29 01:41:44;;;;;;;11.40;7.07;;;10.30;68.70;;;;;;5018935;28;20464;-74
2022/04/29 01:44:12;;;;;;;10.60;8.57;;;10.20;68.70;;;;;;5001567;28;21099;-75
2022/04/29 01:46:40;;;;;;;9.63;7.60;;;10.10;68.80;;;;;;5000523;28;20583;-74
2022/04/29 01:49:27;;;;;;;9.67;7.70;;;10.10;69.00;;;;;;4996226;28;20508;-75
2022/04/29 01:51:59;;;;;;;9.13;7.40;;;10.10;69.00;;;;;;4992410;28;20500;-75
2022/04/29 01:54:28;;;;;;;9.30;7.37;;;10.10;69.10;;;;;;4998873;28;20492;-74
2022/04/29 01:56:57;;;;;;;9.17;7.53;;;10.10;69.20;;;;;;5000650;28;20477;-74
2022/04/29 01:59:25;;;;;;;10.80;7.93;;;10.10;69.30;;;;;;5012996;28;20460;-74
2022/04/29 02:02:11;;;;;;;11.93;7.50;;;10.10;69.30;;;;;;4997529;28;20490;-75
2022/04/29 02:04:42;;;;;;;11.23;7.20;;;10.10;69.30;;;;;;4998770;28;20460;-74
2022/04/29 02:07:10;;;;;;;11.40;7.57;;;10.10;69.20;;;;;;5013283;28;20485;-74
2022/04/29 02:09:42;;;;;;;9.67;7.80;;;10.00;69.10;;;;;;5003790;28;20465;-75
2022/04/29 02:12:12;;;;;;;8.70;6.70;;;10.00;69.10;;;;;;5000986;28;21054;-75
2022/04/29 02:15:07;;;;;;;13.07;7.57;;;9.90;69.10;;;;;;4978256;28;20575;-74
2022/04/29 02:17:40;;;;;;;10.27;7.47;;;9.80;69.20;;;;;;4998913;28;20488;-75
2022/04/29 02:20:10;;;;;;;9.60;6.07;;;9.80;69.20;;;;;;4997860;28;20571;-76
2022/04/29 02:22:40;;;;;;;7.83;6.47;;;9.80;69.40;;;;;;5000122;28;20483;-74
2022/04/29 02:25:09;;;;;;;9.53;6.87;;;9.80;69.50;;;;;;4997488;28;20563;-76
2022/04/29 02:27:41;;;;;;;10.37;8.37;;;9.80;69.50;;;;;;4996354;28;21053;-74
2022/04/29 02:30:11;;;;;;;9.93;8.17;;;9.90;69.40;;;;;;5000066;28;20461;-75
2022/04/29 02:32:39;;;;;;;10.73;8.30;;;9.80;69.20;;;;;;5004172;28;20470;-74
2022/04/29 02:35:07;;;;;;;9.10;6.97;;;9.80;69.30;;;;;;5000504;28;20520;-77
2022/04/29 02:37:35;;;;;;;10.10;7.60;;;9.80;69.30;;;;;;5003009;28;20481;-75
2022/04/29 02:40:05;;;;;;;9.70;7.70;;;9.70;69.30;;;;;;5000172;28;20465;-74
2022/04/29 02:42:33;;;;;;;9.10;7.47;;;9.70;69.30;;;;;;5001906;28;20493;-74
2022/04/29 02:45:03;;;;;;;10.50;6.97;;;9.60;69.40;;;;;;5002994;28;20457;-77
2022/04/29 02:47:42;;;;;;;9.33;6.87;;;9.60;69.60;;;;;;4993950;28;20505;-75
2022/04/29 02:50:11;;;;;;;11.47;7.30;;;9.70;69.70;;;;;;4996953;28;20978;-77
2022/04/29 02:52:46;;;;;;;9.67;7.20;;;9.70;69.60;;;;;;5013104;28;20512;-74
2022/04/29 02:55:15;;;;;;;8.90;7.20;;;9.80;69.80;;;;;;5005397;28;20468;-75
2022/04/29 02:57:52;;;;;;;9.60;6.90;;;9.80;69.80;;;;;;5003784;28;21025;-75
2022/04/29 03:00:22;;;;;;;9.13;7.20;;;9.80;69.60;;;;;;5000657;28;20464;-75
2022/04/29 03:02:50;;;;;;;13.10;7.97;;;9.80;69.60;;;;;;5000598;28;20520;-75
2022/04/29 03:05:19;;;;;;;14.67;7.27;;;9.80;69.60;;;;;;4996588;28;20519;-75
2022/04/29 03:07:47;;;;;;;11.43;8.00;;;9.80;69.60;;;;;;4997077;28;20480;-74
2022/04/29 03:10:17;;;;;;;10.80;6.80;;;9.80;69.60;;;;;;5000164;28;20472;-77
2022/04/29 03:12:45;;;;;;;9.73;7.00;;;9.80;69.60;;;;;;5000557;28;20461;-75
2022/04/29 03:15:17;;;;;;;9.70;6.63;;;9.80;69.50;;;;;;4999246;28;20477;-75
2022/04/29 03:20:37;;;;;;;9.20;6.40;;;9.80;69.50;;;;;;4995757;28;20492;-76
2022/04/29 03:23:06;;;;;;;9.43;7.23;;;9.70;69.40;;;;;;5000643;28;20795;-75
2022/04/29 03:25:36;;;;;;;9.13;7.50;;;9.70;69.40;;;;;;4999431;28;20524;-76
2022/04/29 03:28:06;;;;;;;17.93;9.17;;;9.60;69.60;;;;;;4996094;28;20523;-77
2022/04/29 03:30:41;;;;;;;9.50;7.00;;;9.60;69.70;;;;;;4995023;28;20477;-76
2022/04/29 03:33:11;;;;;;;11.60;7.60;;;9.60;69.80;;;;;;4995921;28;20465;-74
2022/04/29 03:35:45;;;;;;;10.60;7.77;;;9.60;69.90;;;;;;4996703;28;20552;-74
2022/04/29 03:38:22;;;;;;;9.60;8.03;;;9.60;69.80;;;;;;4996061;28;20605;-73
2022/04/29 03:40:50;;;;;;;9.40;7.80;;;9.60;69.60;;;;;;5003282;28;20545;-75
2022/04/29 03:43:19;;;;;;;10.87;8.27;;;9.50;69.60;;;;;;4998349;28;20559;-75
2022/04/29 03:45:47;;;;;;;10.03;7.77;;;9.50;69.70;;;;;;5000612;28;21032;-75
2022/04/29 03:48:27;;;;;;;9.27;6.67;;;9.50;69.90;;;;;;4999249;28;21082;-76
2022/04/29 03:51:06;;;;;;;8.37;7.30;;;9.50;70.00;;;;;;4994589;28;20825;-75
2022/04/29 03:53:35;;;;;;;9.43;6.50;;;9.50;70.00;;;;;;4995884;28;20454;-75
2022/04/29 03:56:05;;;;;;;11.67;7.37;;;9.50;69.80;;;;;;4994002;28;20552;-74
2022/04/29 03:58:33;;;;;;;8.33;6.60;;;9.50;69.90;;;;;;5012953;28;21019;-76
2022/04/29 04:01:01;;;;;;;10.70;7.90;;;9.40;69.90;;;;;;4996566;28;20573;-76
2022/04/29 04:03:50;;;;;;;10.00;7.90;;;9.40;70.00;;;;;;5005287;28;20861;-76
2022/04/29 04:09:07;;;;;;;9.33;6.63;;;9.40;69.90;;;;;;4997547;28;20455;-75
2022/04/29 04:11:37;;;;;;;11.43;7.93;;;9.30;69.90;;;;;;5004369;28;20559;-76
2022/04/29 04:14:07;;;;;;;10.53;7.93;;;9.30;70.00;;;;;;5001019;28;20962;-76
2022/04/29 04:16:46;;;;;;;10.63;7.37;;;9.30;70.20;;;;;;5003690;28;20848;-74
2022/04/29 04:19:16;;;;;;;14.47;8.13;;;9.30;70.20;;;;;;5000458;28;20492;-76
2022/04/29 04:21:44;;;;;;;14.87;8.43;;;9.30;70.20;;;;;;4996688;28;20557;-75
2022/04/29 04:24:12;;;;;;;12.50;8.03;;;9.30;70.10;;;;;;4999655;28;20480;-77
2022/04/29 04:26:40;;;;;;;11.27;8.67;;;9.30;70.30;;;;;;5002073;28;21146;-76
2022/04/29 04:29:12;;;;;;;9.73;7.73;;;9.30;70.20;;;;;;5001408;28;20832;-76
2022/04/29 04:31:44;;;;;;;11.37;8.70;;;9.20;70.40;;;;;;4992225;28;20554;-76
2022/04/29 04:36:59;;;;;;;10.87;8.80;;;9.20;70.60;;;;;;4993065;28;20489;-76
2022/04/29 04:39:27;;;;;;;16.20;9.03;;;9.30;70.70;;;;;;4997561;28;20466;-76
2022/04/29 04:42:01;;;;;;;13.10;9.13;;;9.30;70.80;;;;;;5008614;28;20985;-77
2022/04/29 04:44:38;;;;;;;13.77;8.80;;;9.40;70.90;;;;;;5006058;28;20460;-76
2022/04/29 04:47:06;;;;;;;11.70;8.40;;;9.50;70.80;;;;;;4990104;28;20485;-77
2022/04/29 04:49:54;;;;;;;14.80;8.80;;;9.50;70.80;;;;;;4996781;28;20476;-77
2022/04/29 04:52:26;;;;;;;15.03;8.63;;;9.60;70.80;;;;;;4991885;28;20461;-75
2022/04/29 04:54:55;;;;;;;10.43;8.27;;;9.50;70.70;;;;;;5006368;28;20585;-75
2022/04/29 04:57:26;;;;;;;11.77;8.00;;;9.50;70.80;;;;;;5000632;28;20483;-74
2022/04/29 04:59:54;;;;;;;12.73;9.27;;;9.60;70.90;;;;;;4992758;28;20478;-75
2022/04/29 05:02:22;;;;;;;14.10;9.20;;;9.60;70.90;;;;;;4995373;28;20493;-74
2022/04/29 05:05:22;;;;;;;15.53;9.30;;;9.70;71.40;;;;;;4997989;28;20479;-75
2022/04/29 05:08:00;;;;;;;12.00;8.47;;;9.90;71.60;;;;;;4997488;28;20747;-75
2022/04/29 05:10:30;;;;;;;18.00;10.10;;;10.00;71.10;;;;;;5001936;28;20552;-74
2022/04/29 05:12:58;;;;;;;13.10;9.67;;;10.10;70.80;;;;;;4994006;28;20472;-72
2022/04/29 05:15:29;;;;;;;20.53;9.80;;;10.10;70.60;;;;;;4998306;28;20547;-74
2022/04/29 05:17:57;;;;;;;19.13;10.33;;;10.10;70.50;;;;;;4996636;28;20477;-74
2022/04/29 05:20:46;;;;;;;15.83;10.67;;;10.10;70.60;;;;;;5000611;28;20563;-73
2022/04/29 05:23:16;;;;;;;16.27;12.03;;;10.10;70.60;;;;;;4995650;28;20461;-73
2022/04/29 05:26:02;;;;;;;14.20;10.50;;;10.00;70.70;;;;;;5001406;28;20456;-75
2022/04/29 05:29:02;;;;;;;15.27;10.73;;;10.00;70.80;;;;;;4999233;28;20469;-73
2022/04/29 05:31:48;;;;;;;13.27;10.40;;;10.10;71.10;;;;;;4996797;28;20519;-73
2022/04/29 05:34:40;;;;;;;12.27;10.07;;;10.10;71.40;;;;;;4990994;28;20471;-75
2022/04/29 05:37:40;;;;;;;13.13;10.20;;;10.30;71.80;;;;;;4993914;28;20504;-73
2022/04/29 05:43:08;;;;;;;12.97;9.33;;;11.10;73.00;;;;;;5012756;28;20453;-75
2022/04/29 05:45:36;;;;;;;12.67;9.40;;;12.30;74.60;;;;;;4997939;28;20519;-76
2022/04/29 05:48:06;;;;;;;12.83;9.20;;;13.90;74.10;;;;;;5000441;28;20580;-74
2022/04/29 05:50:35;;;;;;;9.23;8.00;;;15.70;71.80;;;;;;5005453;28;20504;-76
2022/04/29 05:53:05;;;;;;;15.33;8.60;;;17.40;69.10;;;;;;5000692;28;20952;-76
2022/04/29 05:55:35;;;;;;;12.53;8.80;;;18.80;66.30;;;;;;5000692;28;20891;-76
2022/04/29 05:58:20;;;;;;;15.83;10.07;;;19.50;62.50;;;;;;5002466;28;20493;-77
2022/04/29 06:01:04;;;;;;;21.20;10.50;;;18.90;60.10;;;;;;5000079;28;20572;-77
2022/04/29 06:03:33;;;;;;;16.93;12.00;;;17.70;59.70;;;;;;5007329;28;20527;-77
2022/04/29 06:06:01;;;;;;;18.53;11.70;;;16.60;60.20;;;;;;4997895;28;20489;-76
2022/04/29 06:08:29;;;;;;;16.00;11.70;;;15.60;61.00;;;;;;5017389;28;20487;-78
2022/04/29 06:10:58;;;;;;;15.13;11.73;;;14.80;61.80;;;;;;4999714;28;20454;-76
2022/04/29 06:13:26;;;;;;;15.97;12.80;;;14.10;62.70;;;;;;5000210;28;20459;-77
2022/04/29 06:16:14;;;;;;;17.10;12.57;;;13.70;63.40;;;;;;4999768;28;20998;-77
2022/04/29 06:19:05;;;;;;;15.50;12.17;;;13.30;64.30;;;;;;5001425;28;20464;-76
2022/04/29 06:21:59;;;;;;;16.73;12.37;;;12.90;64.90;;;;;;5001408;28;21187;-76
2022/04/29 06:24:30;;;;;;;15.30;12.57;;;12.70;65.60;;;;;;5001361;28;20468;-76
2022/04/29 06:27:20;;;;;;;15.73;12.37;;;12.50;66.10;;;;;;5000684;28;20484;-77
2022/04/29 06:29:49;;;;;;;16.93;13.60;;;12.40;66.60;;;;;;5013620;28;20464;-75
2022/04/29 06:32:18;;;;;;;17.60;13.80;;;12.40;67.00;;;;;;4999323;28;20470;-78
2022/04/29 06:35:21;;;;;;;17.13;13.00;;;12.40;67.40;;;;;;4999792;28;20534;-76
2022/04/29 06:37:51;;;;;;;17.10;11.70;;;12.30;67.80;;;;;;4997217;28;20483;-78
2022/04/29 06:40:45;;;;;;;19.60;14.07;;;12.30;68.10;;;;;;4997540;28;20476;-77
2022/04/29 06:43:14;;;;;;;17.93;13.23;;;12.30;68.50;;;;;;4999037;28;20471;-75
2022/04/29 06:46:01;;;;;;;18.73;14.77;;;12.30;68.80;;;;;;4998268;28;20590;-76
2022/04/29 06:48:49;;;;;;;18.10;14.27;;;12.40;69.00;;;;;;4999065;28;20512;-78
2022/04/29 06:51:35;;;;;;;19.10;14.30;;;12.40;69.30;;;;;;5000418;28;20500;-77
2022/04/29 06:54:09;;;;;;;16.40;13.70;;;12.40;69.60;;;;;;4998011;28;20448;-75
2022/04/29 06:56:39;;;;;;;17.60;14.80;;;12.40;69.80;;;;;;5000765;28;20489;-77
2022/04/29 06:59:08;;;;;;;22.27;13.27;;;12.50;70.10;;;;;;5001500;28;20488;-76
2022/04/29 07:01:40;;;;;;;22.30;14.50;;;12.50;70.30;;;;;;4998638;28;20569;-78
2022/04/29 07:04:08;;;;;;;16.73;12.43;;;12.50;70.40;;;;;;5000822;28;20472;-77
2022/04/29 07:06:36;;;;;;;18.43;14.67;;;12.60;70.50;;;;;;5000515;28;20569;-75
2022/04/29 07:09:05;;;;;;;23.20;17.37;;;12.60;70.70;;;;;;5001527;28;20469;-76
2022/04/29 07:11:52;;;;;;;17.83;14.43;;;12.70;70.70;;;;;;4997309;28;20445;-78
2022/04/29 07:14:28;;;;;;;21.70;13.63;;;12.80;70.90;;;;;;4996121;28;20461;-76
2022/04/29 07:17:02;;;;;;;18.80;15.00;;;12.80;70.80;;;;;;4999706;28;20501;-77
2022/04/29 07:19:37;;;;;;;21.73;14.00;;;12.90;70.90;;;;;;5002856;28;20466;-75
2022/04/29 07:22:26;;;;;;;17.20;13.57;;;13.00;71.00;;;;;;5002303;28;20544;-76
2022/04/29 07:24:55;;;;;;;22.00;14.30;;;13.00;71.10;;;;;;5005878;28;20471;-77
2022/04/29 07:27:23;;;;;;;21.57;14.73;;;13.10;71.20;;;;;;5022276;28;20482;-76
2022/04/29 07:29:53;;;;;;;19.43;14.47;;;13.20;71.30;;;;;;5008336;28;20457;-77
2022/04/29 07:32:27;;;;;;;19.07;13.53;;;13.20;71.20;;;;;;4999924;28;20481;-76
2022/04/29 07:43:52;;;;;;;17.13;12.43;;;13.50;71.30;;;;;;5001715;28;20469;-77
2022/04/29 07:46:22;;;;;;;16.10;11.30;;;13.50;71.00;;;;;;4999395;28;20503;-78
2022/04/29 07:49:09;;;;;;;31.40;13.43;;;13.60;71.00;;;;;;5001325;28;20469;-76
2022/04/29 07:51:38;;;;;;;22.40;12.57;;;13.70;71.00;;;;;;4996034;28;20450;-77
2022/04/29 07:54:07;;;;;;;18.60;12.60;;;13.70;71.10;;;;;;5005792;28;20453;-78
2022/04/29 07:56:35;;;;;;;29.57;13.20;;;13.80;71.10;;;;;;4999325;28;21052;-75
2022/04/29 07:59:04;;;;;;;18.47;12.93;;;13.90;71.10;;;;;;4995906;28;21258;-75
2022/04/29 08:01:36;;;;;;;17.57;12.20;;;14.00;71.10;;;;;;5001006;28;20529;-78
2022/04/29 08:04:04;;;;;;;17.47;11.53;;;14.00;71.00;;;;;;5000620;28;21227;-77
2022/04/29 08:06:33;;;;;;;18.80;12.00;;;14.10;70.90;;;;;;5003884;28;20487;-78
2022/04/29 08:09:21;;;;;;;16.47;12.40;;;14.20;70.70;;;;;;5002883;28;20495;-77
2022/04/29 08:11:49;;;;;;;13.40;12.00;;;14.30;70.60;;;;;;5003094;28;20471;-78
2022/04/29 08:14:45;;;;;;;17.17;10.80;;;14.40;70.60;;;;;;4986988;28;20472;-77
2022/04/29 08:17:25;;;;;;;15.93;12.20;;;14.50;70.60;;;;;;4999391;28;20484;-77
2022/04/29 08:19:54;;;;;;;14.97;11.60;;;14.60;70.40;;;;;;5005396;28;20462;-78
2022/04/29 08:22:23;;;;;;;13.30;10.93;;;14.60;70.30;;;;;;5000958;28;20477;-76
2022/04/29 08:24:52;;;;;;;15.33;12.10;;;14.70;70.10;;;;;;4998180;28;20496;-77
2022/04/29 08:27:21;;;;;;;16.90;11.10;;;14.80;70.00;;;;;;5000783;28;20479;-77
2022/04/29 08:29:59;;;;;;;17.77;11.70;;;14.80;70.00;;;;;;4999737;28;20472;-76
2022/04/29 08:32:29;;;;;;;19.30;13.10;;;14.90;69.90;;;;;;5002323;28;20542;-77
2022/04/29 08:34:57;;;;;;;15.90;12.30;;;14.90;69.90;;;;;;5002845;28;20918;-79
2022/04/29 08:37:25;;;;;;;15.13;10.90;;;15.00;69.80;;;;;;5011409;28;20509;-78
2022/04/29 08:39:53;;;;;;;25.53;12.40;;;15.00;69.70;;;;;;5002869;28;20473;-77
2022/04/29 08:42:22;;;;;;;22.67;10.60;;;15.00;69.70;;;;;;5013396;28;20476;-77
2022/04/29 08:44:52;;;;;;;14.77;10.10;;;15.10;69.70;;;;;;5005791;28;20457;-76
2022/04/29 08:47:38;;;;;;;18.30;10.53;;;15.10;69.60;;;;;;4995458;28;20490;-75
2022/04/29 08:50:13;;;;;;;20.37;10.83;;;15.20;69.60;;;;;;4995447;28;20465;-79
2022/04/29 08:52:41;;;;;;;15.87;11.17;;;15.20;69.50;;;;;;4993618;28;20982;-77
2022/04/29 09:00:44;;;;;;;22.67;11.03;;;15.30;69.30;;;;;;5008811;28;20481;-76
2022/04/29 09:03:15;;;;;;;20.50;10.43;;;15.30;69.40;;;;;;4997107;28;21029;-78
2022/04/29 09:05:44;;;;;;;17.10;11.20;;;15.40;69.20;;;;;;4999260;28;20457;-76
2022/04/29 09:08:14;;;;;;;18.03;10.80;;;15.40;69.00;;;;;;4997447;28;20487;-77
2022/04/29 09:10:49;;;;;;;17.07;10.40;;;15.40;68.90;;;;;;5002897;28;20453;-77
2022/04/29 09:13:24;;;;;;;14.10;9.87;;;15.50;68.90;;;;;;4996107;28;20476;-77
2022/04/29 09:15:57;;;;;;;16.50;11.30;;;15.50;68.80;;;;;;5000280;28;20484;-76
2022/04/29 09:18:37;;;;;;;18.37;11.57;;;15.60;68.70;;;;;;5018713;28;20491;-76
2022/04/29 09:21:07;;;;;;;15.30;10.70;;;15.50;68.40;;;;;;5003116;28;20598;-78
2022/04/29 09:23:37;;;;;;;23.40;9.97;;;15.60;68.50;;;;;;5001093;28;20450;-78
2022/04/29 09:26:25;;;;;;;19.93;10.53;;;15.60;68.30;;;;;;5006257;28;20947;-79
2022/04/29 09:29:21;;;;;;;18.13;9.90;;;15.60;68.20;;;;;;4995102;28;20471;-78
2022/04/29 09:31:58;;;;;;;15.67;9.37;;;15.60;68.10;;;;;;5005968;28;20469;-78
2022/04/29 09:35:06;;;;;;;15.60;10.67;;;15.60;67.60;;;;;;4978523;28;20476;-78
2022/04/29 09:39:26;;;;;;;12.80;9.30;;;15.60;67.60;;;;;;4996223;28;20480;-77
2022/04/29 09:40:37;;;;;;;14.57;9.90;;;15.60;67.60;;;;;;5002477;28;20468;-78
2022/04/29 09:43:05;;;;;;;11.20;8.40;;;15.70;67.30;;;;;;5004865;28;20476;-79
2022/04/29 09:45:33;;;;;;;16.50;10.20;;;15.70;67.30;;;;;;5003855;28;20488;-78
2022/04/29 09:48:01;;;;;;;14.17;9.50;;;15.70;67.10;;;;;;5009191;28;20480;-77
2022/04/29 09:50:46;;;;;;;19.50;10.13;;;15.80;67.10;;;;;;5003293;28;20445;-78
2022/04/29 09:53:23;;;;;;;14.37;9.10;;;15.80;66.80;;;;;;5002606;28;20452;-77
2022/04/29 09:56:08;;;;;;;17.20;9.40;;;15.90;66.70;;;;;;5009309;28;20462;-78
2022/04/29 09:58:37;;;;;;;14.53;10.30;;;15.90;66.50;;;;;;5003025;28;20462;-76
2022/04/29 10:01:05;;;;;;;14.60;9.30;;;16.00;66.50;;;;;;5002123;28;20532;-77
2022/04/29 10:03:35;;;;;;;15.63;9.90;;;16.00;66.30;;;;;;5008767;28;20465;-76
2022/04/29 10:06:10;;;;;;;12.80;8.60;;;16.00;66.20;;;;;;5003798;28;20966;-77
2022/04/29 10:08:39;;;;;;;13.03;9.23;;;16.10;65.90;;;;;;4996937;28;20931;-78
2022/04/29 10:11:07;;;;;;;13.93;8.20;;;16.10;65.90;;;;;;4999905;28;20472;-75
2022/04/29 10:13:36;;;;;;;14.50;8.87;;;16.10;65.70;;;;;;4998883;28;20450;-76
2022/04/29 10:16:14;;;;;;;12.60;8.53;;;16.20;65.50;;;;;;5016604;28;20496;-76
2022/04/29 10:22:05;;;;;;;13.50;9.60;;;16.30;65.00;;;;;;5001409;28;21148;-77
2022/04/29 10:24:34;;;;;;;19.40;9.90;;;16.40;64.80;;;;;;5003697;28;20512;-77
2022/04/29 10:27:02;;;;;;;13.33;7.60;;;16.40;64.80;;;;;;4999126;28;20492;-76
2022/04/29 10:29:30;;;;;;;15.17;8.30;;;16.50;64.50;;;;;;4997336;28;20461;-77
2022/04/29 10:32:05;;;;;;;18.30;8.10;;;16.50;64.30;;;;;;5013242;28;21259;-76
2022/04/29 10:34:34;;;;;;;13.80;7.90;;;16.60;64.00;;;;;;5000445;28;20475;-79
2022/04/29 10:37:12;;;;;;;13.43;7.37;;;16.70;63.70;;;;;;5005687;28;21183;-78
2022/04/29 10:39:42;;;;;;;14.53;7.97;;;16.70;63.30;;;;;;4998235;28;20456;-77
2022/04/29 10:42:11;;;;;;;13.97;7.80;;;16.80;63.20;;;;;;4999316;28;20489;-77
2022/04/29 10:45:00;;;;;;;16.23;7.90;;;16.80;63.20;;;;;;5001223;28;20480;-77
2022/04/29 10:47:38;;;;;;;13.57;8.07;;;16.90;62.70;;;;;;4998677;28;20495;-74
2022/04/29 10:50:38;;;;;;;10.83;6.53;;;17.00;62.50;;;;;;5016337;28;20471;-76
2022/04/29 10:53:37;;;;;;;12.00;6.50;;;17.10;62.00;;;;;;4993030;28;20957;-76
2022/04/29 10:56:46;;;;;;;9.93;6.50;;;17.20;61.60;;;;;;4998575;28;20472;-76
2022/04/29 10:59:19;;;;;;;10.10;6.40;;;17.20;61.10;;;;;;4976045;28;20480;-77
2022/04/29 11:02:07;;;;;;;10.77;6.17;;;17.30;61.20;;;;;;4972027;28;20579;-76
2022/04/29 11:04:48;;;;;;;13.50;7.03;;;17.30;60.30;;;;;;4989750;28;20546;-75
2022/04/29 11:07:58;;;;;;;14.63;6.93;;;17.40;60.00;;;;;;4998819;28;20488;-76
2022/04/29 11:10:54;;;;;;;10.50;6.93;;;17.40;59.60;;;;;;4997963;28;20464;-74
2022/04/29 11:13:24;;;;;;;12.60;6.93;;;17.60;59.80;;;;;;4996779;28;20469;-75
2022/04/29 11:16:11;;;;;;;12.60;6.50;;;17.60;58.90;;;;;;4996967;28;20468;-76
2022/04/29 11:19:21;;;;;;;8.57;5.50;;;17.60;58.60;;;;;;4998278;28;20475;-74
2022/04/29 11:24:44;;;;;;;8.40;4.37;;;17.70;58.10;;;;;;4993699;28;21014;-75
2022/04/29 11:27:27;;;;;;;7.73;4.53;;;17.70;58.00;;;;;;4997494;28;20528;-78
2022/04/29 11:30:01;;;;;;;10.20;5.60;;;17.80;57.90;;;;;;5013340;28;20508;-76
2022/04/29 11:32:43;;;;;;;13.40;5.37;;;17.80;57.30;;;;;;4998742;28;20470;-77
2022/04/29 11:35:11;;;;;;;6.97;4.23;;;17.90;57.20;;;;;;4999581;28;20462;-75
2022/04/29 11:37:39;;;;;;;9.53;5.80;;;17.90;57.00;;;;;;4997658;28;20481;-76
2022/04/29 11:40:10;;;;;;;10.53;5.70;;;18.00;56.80;;;;;;4997207;28;20515;-76
2022/04/29 11:42:49;;;;;;;9.20;6.40;;;18.00;56.60;;;;;;4994977;28;20473;-76
2022/04/29 11:45:21;;;;;;;12.50;6.10;;;18.00;56.00;;;;;;4996690;28;20464;-75
2022/04/29 11:48:02;;;;;;;8.97;6.57;;;18.00;56.20;;;;;;5000104;28;20493;-76
2022/04/29 11:50:36;;;;;;;9.07;5.80;;;18.00;55.00;;;;;;4993954;28;20456;-76
2022/04/29 11:53:07;;;;;;;9.13;6.47;;;18.00;55.90;;;;;;5013558;28;20453;-76
2022/04/29 11:55:35;;;;;;;10.50;6.93;;;18.10;55.80;;;;;;4994013;28;20458;-76
2022/04/29 11:58:05;;;;;;;10.37;6.83;;;18.10;55.50;;;;;;4998485;28;20497;-76
2022/04/29 12:00:35;;;;;;;13.77;7.43;;;18.10;55.80;;;;;;4993273;28;20540;-75
2022/04/29 12:03:04;;;;;;;10.50;6.90;;;18.10;55.30;;;;;;4996550;28;20539;-75
2022/04/29 12:05:33;;;;;;;13.47;6.30;;;18.10;55.50;;;;;;4995645;28;20973;-75
2022/04/29 12:08:06;;;;;;;11.03;6.03;;;18.10;55.60;;;;;;4992813;28;20477;-75
2022/04/29 12:10:45;;;;;;;8.40;5.93;;;18.20;55.50;;;;;;5003106;28;20571;-76
2022/04/29 12:13:18;;;;;;;9.77;6.37;;;18.20;55.80;;;;;;4995152;28;20458;-75
2022/04/29 12:15:47;;;;;;;8.97;5.90;;;18.20;55.80;;;;;;4997285;28;20478;-75
2022/04/29 12:18:16;;;;;;;11.50;7.27;;;18.20;56.50;;;;;;4996934;28;20504;-75
2022/04/29 12:20:58;;;;;;;9.97;6.60;;;18.20;56.30;;;;;;4992031;28;20536;-75
2022/04/29 12:23:26;;;;;;;9.20;5.90;;;18.20;56.10;;;;;;4997883;28;20998;-76
2022/04/29 12:25:55;;;;;;;8.97;6.20;;;18.30;55.60;;;;;;4996723;28;20991;-75
2022/04/29 12:28:27;;;;;;;12.70;6.10;;;18.30;55.40;;;;;;5011673;28;20480;-76
2022/04/29 12:36:46;;;;;;;7.90;4.80;;;18.40;55.10;;;;;;5004051;28;20500;-75
2022/04/29 12:39:20;;;;;;;14.70;4.90;;;18.40;55.00;;;;;;4995569;28;20551;-76
2022/04/29 12:42:01;;;;;;;8.87;5.40;;;18.40;54.60;;;;;;4995742;28;20540;-75
2022/04/29 12:45:06;;;;;;;8.07;5.37;;;18.50;54.40;;;;;;4995278;28;20485;-75
2022/04/29 12:47:40;;;;;;;7.10;4.60;;;18.50;53.90;;;;;;4998028;28;20567;-75
2022/04/29 12:50:28;;;;;;;9.30;4.63;;;18.40;54.30;;;;;;4991790;28;20469;-74
2022/04/29 12:53:00;;;;;;;11.67;6.67;;;18.40;54.30;;;;;;4992801;28;20456;-75
2022/04/29 12:55:29;;;;;;;8.53;6.10;;;18.50;54.40;;;;;;4993402;28;20481;-75
2022/04/29 12:58:09;;;;;;;7.97;5.70;;;18.50;54.60;;;;;;4989825;28;20509;-75
2022/04/29 13:00:40;;;;;;;8.20;5.30;;;18.60;54.70;;;;;;4992025;28;20472;-76
2022/04/29 13:03:09;;;;;;;9.27;5.37;;;18.60;54.80;;;;;;4992845;28;21011;-75
2022/04/29 13:05:42;;;;;;;8.00;4.70;;;18.60;54.60;;;;;;4990013;28;20516;-75
2022/04/29 13:08:10;;;;;;;8.20;4.47;;;18.70;54.50;;;;;;4991646;28;20496;-74
2022/04/29 13:10:42;;;;;;;8.50;5.30;;;18.70;54.30;;;;;;4996430;28;20452;-75
2022/04/29 13:13:11;;;;;;;8.20;4.70;;;18.70;54.00;;;;;;4994127;28;20454;-75
2022/04/29 13:15:41;;;;;;;10.70;5.03;;;18.80;54.00;;;;;;4988064;28;20480;-75
2022/04/29 13:18:15;;;;;;;10.17;5.10;;;18.90;54.00;;;;;;4991689;28;20476;-76
2022/04/29 13:20:43;;;;;;;9.47;6.63;;;18.90;53.80;;;;;;4991383;28;20461;-75
2022/04/29 13:23:17;;;;;;;9.93;6.07;;;19.00;53.50;;;;;;4990645;28;20478;-75
2022/04/29 13:25:50;;;;;;;16.60;5.80;;;19.00;53.00;;;;;;4994026;28;20459;-75
2022/04/29 13:28:18;;;;;;;9.20;5.90;;;18.90;53.00;;;;;;4994106;28;20488;-75
2022/04/29 13:30:48;;;;;;;8.47;5.40;;;18.90;53.20;;;;;;4990420;28;21298;-75
2022/04/29 13:33:16;;;;;;;9.00;5.93;;;18.90;53.20;;;;;;5005291;28;20458;-75
2022/04/29 13:35:44;;;;;;;6.90;4.93;;;19.00;52.70;;;;;;4991244;28;20821;-76
2022/04/29 13:38:12;;;;;;;11.27;6.20;;;19.10;52.80;;;;;;4991257;28;20504;-76
2022/04/29 13:40:40;;;;;;;14.67;5.87;;;19.10;53.10;;;;;;4992109;28;20815;-76
2022/04/29 13:43:08;;;;;;;8.43;5.43;;;19.20;53.30;;;;;;4994743;28;20458;-75
2022/04/29 13:45:36;;;;;;;9.30;5.50;;;19.20;53.40;;;;;;4990350;28;21029;-76
2022/04/29 13:48:06;;;;;;;7.80;4.57;;;19.30;53.40;;;;;;4994912;28;20483;-76
2022/04/29 13:50:34;;;;;;;10.20;5.70;;;19.30;53.20;;;;;;4990180;28;20986;-77